OIAM  Mahshahr  Airport

Iran

Add Bookmark
ICAO OIAM
IATA MRX
Type Airport
Status Operational
Latitude
30° 33' 22" N
30.556200
Longitude
49° 9' 6" E
49.151901
Local (GMT +3.5 ) UTC
Dec 7, 2016 05:54 pm Dec 7, 2016 14:24
Sunrise-Sunset Local UTC
Begin Civil Twilight 06:30 am 03:00
Sunrise 06:56 am 03:26
Sunset 05:13 pm 13:43
End Civil Twilight 05:39 pm 14:09
VFR
VFR
MVFR
MVFR
IFR
IFR
LIFR
LIFR
Unknown
No Data

Current Weather

METAR Observed VFR
OIAM 071400Z 31008KT 9999 SCT040 16/06 Q1020 Wed, Dec 7, 2016 @ 14:00 UTC
(24 Minutes ago)
Visual Flight Rules
Wind Visibility Clouds Conditions
310° at 8 knots (15 kph) 10 km or more
  • Scattered at 4,000 ft AGL
  • No significant weather
Temperatures Readings Precipitation
Current Temp
16°C
61°F
Dewpoint
6°C
43°F
Humidity 52%
Altimeter 30.12" Hg
Sea Level Pressure 1,020 mb
Field Elevation
4 m
13 ft
None Recorded

Additional weather within a 92.6km radius of OIAM

Map ICAO Location
OIAG 54.4km E/NE (067°)
VFR
VFR
MVFR
MVFR
IFR
IFR
LIFR
LIFR
Unknown
No Data
-
-

CheckWX.com is intended as a tool to help pilots better visualize weather data. It is not intended as a substitute for an official weather briefing obtained from a Flight Service Station. CheckWX.com does not meet the FAA requirements for an official pre-flight weather briefing. Therefore, it's important that pilots still call and obtain an official FSS pre-flight weather briefing.

© 2007-2016 CheckWX.com
14:24:00 UTC